createdAt,value
2023-03-27T00:00:06.821Z,85.69
2023-03-27T00:01:06.819Z,84.61
2023-03-27T00:02:06.866Z,84.61
2023-03-27T00:03:06.944Z,84.61
2023-03-27T00:04:06.841Z,84.86
2023-03-27T00:05:06.778Z,84.51
2023-03-27T00:06:06.802Z,84.03
2023-03-27T00:07:06.785Z,83.89
2023-03-27T00:08:06.801Z,84.61
2023-03-27T00:09:06.747Z,84.51
2023-03-27T00:10:06.752Z,83.92
2023-03-27T00:11:06.790Z,84.34
2023-03-27T00:12:06.724Z,84.51
2023-03-27T00:13:06.728Z,84.30
2023-03-27T00:14:06.726Z,83.99
2023-03-27T00:15:06.712Z,83.16
2023-03-27T00:16:06.721Z,83.26
2023-03-27T00:17:06.692Z,84.13
2023-03-27T00:18:06.773Z,84.03
2023-03-27T00:19:06.673Z,83.92
2023-03-27T00:20:06.691Z,83.78
2023-03-27T00:21:06.697Z,83.78
2023-03-27T00:22:06.674Z,83.78
2023-03-27T00:23:06.666Z,84.23
2023-03-27T00:24:06.711Z,84.03
2023-03-27T00:25:06.642Z,84.55
2023-03-27T00:26:06.652Z,84.03
2023-03-27T00:27:06.692Z,83.09
2023-03-27T00:28:06.628Z,83.30
2023-03-27T00:29:06.633Z,84.03
2023-03-27T00:30:06.628Z,83.37
2023-03-27T00:31:06.654Z,84.34
2023-03-27T00:32:06.640Z,84.06
2023-03-27T00:33:06.667Z,84.59
2023-03-27T00:34:06.604Z,84.80
2023-03-27T00:35:06.609Z,84.44
2023-03-27T00:36:06.690Z,83.92
2023-03-27T00:37:06.573Z,83.92
2023-03-27T00:38:06.620Z,84.65
2023-03-27T00:39:06.564Z,82.89
2023-03-27T00:40:06.584Z,84.34
2023-03-27T00:41:06.567Z,84.03
2023-03-27T00:42:06.531Z,83.92
2023-03-27T00:43:06.541Z,84.59
2023-03-27T00:44:06.537Z,84.48
2023-03-27T00:45:06.558Z,84.48
2023-03-27T00:46:06.546Z,84.75
2023-03-27T00:47:06.495Z,84.17
2023-03-27T00:48:06.510Z,83.86
2023-03-27T00:49:06.523Z,83.96
2023-03-27T00:50:06.530Z,83.82
2023-03-27T00:51:06.477Z,84.34
2023-03-27T00:52:06.458Z,82.92
2023-03-27T00:53:06.458Z,84.13
2023-03-27T00:54:06.485Z,83.72
2023-03-27T00:55:06.493Z,84.17
2023-03-27T00:56:06.453Z,83.96
2023-03-27T00:57:06.487Z,83.75
2023-03-27T00:58:06.434Z,83.13
2023-03-27T00:59:06.439Z,83.23
2023-03-27T01:00:07.621Z,82.68
2023-03-27T01:01:06.518Z,83.20
2023-03-27T01:02:06.413Z,82.89
2023-03-27T01:03:06.501Z,82.68
2023-03-27T01:04:06.400Z,82.89
2023-03-27T01:05:06.378Z,82.89
2023-03-27T01:06:06.397Z,82.57
2023-03-27T01:07:06.381Z,82.57
2023-03-27T01:08:06.363Z,83.03
2023-03-27T01:09:06.343Z,83.09
2023-03-27T01:10:06.340Z,82.05
2023-03-27T01:11:06.402Z,81.84
2023-03-27T01:12:06.343Z,82.26
2023-03-27T01:13:06.339Z,82.40
2023-03-27T01:14:06.338Z,82.57
2023-03-27T01:15:06.316Z,83.09
2023-03-27T01:16:06.331Z,82.46
2023-03-27T01:17:06.335Z,83.09
2023-03-27T01:18:06.362Z,82.57
2023-03-27T01:19:06.289Z,82.46
2023-03-27T01:20:06.275Z,81.95
2023-03-27T01:21:06.280Z,82.36
2023-03-27T01:22:06.285Z,82.36
2023-03-27T01:23:06.283Z,83.13
2023-03-27T01:24:06.263Z,83.03
2023-03-27T01:25:06.276Z,82.61
2023-03-27T01:26:06.249Z,82.30
2023-03-27T01:27:06.270Z,83.13
2023-03-27T01:28:06.234Z,82.82
2023-03-27T01:29:06.230Z,82.78
2023-03-27T01:30:06.203Z,82.82
2023-03-27T01:31:06.234Z,82.92
2023-03-27T01:32:06.208Z,83.44
2023-03-27T01:33:06.267Z,82.30
2023-03-27T01:34:06.219Z,82.61
2023-03-27T01:35:06.172Z,82.20
2023-03-27T01:36:06.177Z,82.51
2023-03-27T01:37:06.163Z,83.23
2023-03-27T01:38:06.187Z,83.13
2023-03-27T01:39:06.189Z,82.71
2023-03-27T01:40:06.139Z,82.51
2023-03-27T01:41:06.147Z,83.13
2023-03-27T01:42:06.149Z,83.06
2023-03-27T01:43:06.135Z,83.27
2023-03-27T01:44:06.181Z,83.17
2023-03-27T01:45:06.106Z,83.17
2023-03-27T01:46:07.101Z,82.71
2023-03-27T01:47:06.091Z,82.61
2023-03-27T01:48:06.097Z,83.23
2023-03-27T01:49:06.101Z,82.51
2023-03-27T01:50:06.124Z,81.98
2023-03-27T01:51:06.110Z,81.98
2023-03-27T01:52:06.081Z,81.77
2023-03-27T01:53:06.073Z,82.09
2023-03-27T01:54:06.059Z,82.54
2023-03-27T01:55:06.101Z,82.44
2023-03-27T01:56:06.062Z,81.46
2023-03-27T01:57:06.073Z,82.13
2023-03-27T01:58:06.046Z,82.65
2023-03-27T01:59:06.052Z,81.98
2023-03-27T02:00:18.410Z,82.23
2023-03-27T02:01:07.266Z,82.03
2023-03-27T02:02:05.992Z,82.65
2023-03-27T02:03:06.024Z,82.23
2023-03-27T02:04:06.019Z,82.23
2023-03-27T02:05:06.055Z,82.44
2023-03-27T02:06:05.994Z,82.03
2023-03-27T02:07:05.995Z,82.13
2023-03-27T02:08:05.982Z,82.34
2023-03-27T02:09:05.959Z,82.23
2023-03-27T02:10:05.982Z,82.44
2023-03-27T02:11:05.961Z,82.03
2023-03-27T02:12:05.921Z,81.71
2023-03-27T02:13:05.934Z,81.81
2023-03-27T02:14:05.923Z,82.27
2023-03-27T02:15:23.982Z,81.85
2023-03-27T02:16:06.971Z,82.13
2023-03-27T02:17:05.907Z,82.03
2023-03-27T02:18:05.929Z,82.86
2023-03-27T02:19:05.902Z,82.68
2023-03-27T02:20:05.907Z,82.89
2023-03-27T02:21:05.906Z,82.58
2023-03-27T02:22:05.924Z,82.79
2023-03-27T02:23:05.869Z,83.00
2023-03-27T02:24:05.913Z,83.31
2023-03-27T02:25:05.909Z,83.20
2023-03-27T02:26:05.860Z,83.20
2023-03-27T02:27:05.830Z,83.10
2023-03-27T02:28:05.838Z,83.62
2023-03-27T02:29:05.858Z,82.89
2023-03-27T02:30:05.848Z,83.10
2023-03-27T02:31:33.227Z,82.89
2023-03-27T02:32:06.879Z,81.85
2023-03-27T02:33:05.857Z,82.89
2023-03-27T02:34:05.845Z,82.51
2023-03-27T02:35:05.838Z,81.96
2023-03-27T02:36:05.860Z,82.27
2023-03-27T02:37:05.807Z,82.17
2023-03-27T02:38:05.761Z,82.58
2023-03-27T02:39:05.770Z,82.37
2023-03-27T02:40:05.781Z,82.48
2023-03-27T02:41:05.770Z,82.37
2023-03-27T02:42:05.785Z,82.10
2023-03-27T02:43:05.761Z,82.06
2023-03-27T02:44:05.806Z,82.27
2023-03-27T02:45:05.766Z,82.06
2023-03-27T02:46:05.782Z,82.51
2023-03-27T02:47:05.717Z,82.62
2023-03-27T02:48:05.748Z,82.62
2023-03-27T02:49:05.741Z,82.93
2023-03-27T02:50:05.693Z,82.10
2023-03-27T02:51:05.681Z,82.31
2023-03-27T02:52:05.681Z,82.51
2023-03-27T02:53:05.678Z,81.58
2023-03-27T02:54:05.680Z,81.05
2023-03-27T02:55:05.660Z,81.37
2023-03-27T02:56:05.662Z,82.20
2023-03-27T02:57:05.678Z,81.68
2023-03-27T02:58:05.650Z,81.79
2023-03-27T02:59:05.661Z,81.68
2023-03-27T03:00:05.625Z,81.68
2023-03-27T03:01:05.640Z,81.68
2023-03-27T03:02:05.662Z,81.89
2023-03-27T03:03:05.766Z,81.68
2023-03-27T03:04:05.622Z,82.31
2023-03-27T03:05:05.640Z,81.68
2023-03-27T03:06:05.620Z,82.10
2023-03-27T03:07:05.578Z,82.20
2023-03-27T03:08:05.598Z,82.20
2023-03-27T03:09:05.592Z,82.34
2023-03-27T03:10:05.584Z,81.99
2023-03-27T03:11:05.564Z,82.03
2023-03-27T03:12:05.593Z,82.41
2023-03-27T03:13:05.553Z,82.41
2023-03-27T03:14:05.557Z,81.79
2023-03-27T03:15:05.542Z,81.79
2023-03-27T03:16:05.529Z,81.79
2023-03-27T03:17:05.554Z,81.51
2023-03-27T03:18:05.555Z,81.82
2023-03-27T03:19:05.530Z,80.74
2023-03-27T03:20:05.597Z,80.95
2023-03-27T03:21:05.503Z,81.62
2023-03-27T03:22:05.530Z,81.72
2023-03-27T03:23:05.481Z,80.95
2023-03-27T03:24:05.467Z,80.99
2023-03-27T03:25:05.504Z,81.68
2023-03-27T03:26:05.464Z,81.93
2023-03-27T03:27:05.480Z,82.34
2023-03-27T03:28:05.462Z,82.45
2023-03-27T03:29:05.444Z,81.82
2023-03-27T03:30:05.457Z,81.20
2023-03-27T03:31:05.489Z,81.09
2023-03-27T03:32:05.446Z,81.09
2023-03-27T03:33:05.461Z,81.09
2023-03-27T03:34:05.410Z,81.82
2023-03-27T03:35:05.441Z,82.45
2023-03-27T03:36:05.465Z,81.82
2023-03-27T03:37:05.385Z,81.05
2023-03-27T03:38:05.373Z,80.95
2023-03-27T03:39:05.408Z,81.82
2023-03-27T03:40:05.378Z,81.93
2023-03-27T03:41:05.388Z,81.82
2023-03-27T03:42:05.351Z,81.82
2023-03-27T03:43:05.351Z,81.82
2023-03-27T03:44:05.351Z,81.20
2023-03-27T03:45:05.368Z,80.99
2023-03-27T03:46:05.378Z,80.88
2023-03-27T03:47:05.388Z,81.82
2023-03-27T03:48:05.388Z,81.30
2023-03-27T03:49:05.315Z,81.30
2023-03-27T03:50:05.331Z,80.47
2023-03-27T03:51:05.327Z,81.62
2023-03-27T03:52:05.399Z,82.17
2023-03-27T03:53:05.326Z,82.14
2023-03-27T03:54:05.416Z,82.38
2023-03-27T03:55:05.296Z,82.59
2023-03-27T03:56:05.275Z,82.10
2023-03-27T03:57:05.357Z,82.59
2023-03-27T03:58:05.400Z,81.76
2023-03-27T03:59:05.300Z,80.92
2023-03-27T04:00:06.257Z,80.36
2023-03-27T04:01:05.255Z,80.61
2023-03-27T04:02:05.247Z,81.09
2023-03-27T04:03:05.290Z,80.57
2023-03-27T04:04:05.209Z,80.88
2023-03-27T04:05:09.234Z,80.71
2023-03-27T04:06:06.209Z,80.92
2023-03-27T04:07:05.196Z,81.13
2023-03-27T04:08:05.219Z,80.88
2023-03-27T04:09:05.207Z,80.51
2023-03-27T04:10:05.192Z,81.09
2023-03-27T04:11:06.199Z,80.99
2023-03-27T04:12:05.152Z,80.99
2023-03-27T04:13:05.188Z,81.02
2023-03-27T04:14:05.176Z,81.55
2023-03-27T04:15:05.227Z,81.20
2023-03-27T04:16:05.190Z,81.02
2023-03-27T04:17:05.130Z,81.45
2023-03-27T04:18:05.378Z,82.17
2023-03-27T04:19:05.158Z,82.31
2023-03-27T04:20:05.111Z,82.59
2023-03-27T04:21:05.148Z,82.59
2023-03-27T04:22:05.116Z,82.59
2023-03-27T04:23:05.119Z,82.59
2023-03-27T04:24:05.136Z,82.59
2023-03-27T04:25:05.074Z,81.86
2023-03-27T04:26:06.196Z,81.93
2023-03-27T04:27:05.068Z,82.03
2023-03-27T04:28:05.058Z,82.34
2023-03-27T04:29:05.092Z,81.86
2023-03-27T04:30:05.061Z,82.14
2023-03-27T04:31:05.069Z,82.38
2023-03-27T04:32:05.062Z,82.28
2023-03-27T04:33:06.292Z,82.07
2023-03-27T04:34:05.041Z,82.48
2023-03-27T04:35:05.044Z,82.24
2023-03-27T04:36:06.055Z,82.59
2023-03-27T04:37:04.994Z,82.28
2023-03-27T04:38:05.004Z,82.59
2023-03-27T04:39:05.016Z,82.38
2023-03-27T04:40:04.985Z,82.80
2023-03-27T04:41:05.046Z,82.48
2023-03-27T04:42:04.958Z,82.80
2023-03-27T04:43:04.997Z,82.70
2023-03-27T04:44:04.985Z,82.80
2023-03-27T04:45:04.972Z,83.11
2023-03-27T04:46:04.984Z,83.84
2023-03-27T04:47:06.759Z,82.70
2023-03-27T04:48:04.957Z,82.24
2023-03-27T04:49:04.938Z,82.03
2023-03-27T04:50:04.906Z,82.17
2023-03-27T04:51:04.962Z,82.55
2023-03-27T04:52:04.979Z,82.45
2023-03-27T04:53:04.923Z,81.79
2023-03-27T04:54:04.998Z,81.16
2023-03-27T04:55:05.037Z,80.85
2023-03-27T04:56:04.890Z,80.85
2023-03-27T04:57:04.940Z,81.79
2023-03-27T04:58:04.871Z,81.68
2023-03-27T04:59:04.884Z,81.02
2023-03-27T05:00:04.870Z,80.60
2023-03-27T05:01:04.905Z,80.95
2023-03-27T05:02:04.879Z,80.64
2023-03-27T05:03:04.994Z,81.93
2023-03-27T05:04:04.872Z,82.34
2023-03-27T05:05:04.868Z,83.01
2023-03-27T05:06:04.800Z,83.91
2023-03-27T05:07:04.887Z,83.28
2023-03-27T05:08:04.800Z,82.65
2023-03-27T05:09:04.796Z,83.91
2023-03-27T05:10:04.793Z,83.07
2023-03-27T05:11:04.783Z,83.80
2023-03-27T05:12:04.802Z,83.39
2023-03-27T05:13:04.771Z,83.84
2023-03-27T05:14:04.747Z,84.16
2023-03-27T05:15:04.860Z,84.78
2023-03-27T05:16:04.759Z,84.67
2023-03-27T05:17:04.730Z,84.12
2023-03-27T05:18:04.823Z,84.01
2023-03-27T05:19:04.727Z,83.28
2023-03-27T05:20:04.732Z,83.39
2023-03-27T05:21:04.726Z,83.91
2023-03-27T05:22:04.693Z,83.32
2023-03-27T05:23:04.769Z,84.01
2023-03-27T05:24:04.694Z,84.01
2023-03-27T05:25:04.671Z,83.07
2023-03-27T05:26:04.672Z,83.39
2023-03-27T05:27:04.679Z,83.28
2023-03-27T05:28:04.709Z,83.39
2023-03-27T05:29:04.681Z,83.49
2023-03-27T05:30:04.657Z,84.22
2023-03-27T05:31:04.640Z,83.91
2023-03-27T05:32:04.616Z,84.12
2023-03-27T05:33:04.683Z,83.95
2023-03-27T05:34:04.696Z,84.33
2023-03-27T05:35:04.604Z,83.91
2023-03-27T05:36:04.690Z,84.08
2023-03-27T05:37:04.602Z,83.14
2023-03-27T05:38:04.593Z,82.58
2023-03-27T05:39:04.603Z,82.03
2023-03-27T05:40:04.567Z,80.84
2023-03-27T05:41:04.588Z,78.83
2023-03-27T05:42:04.578Z,79.03
2023-03-27T05:43:04.547Z,78.48
2023-03-27T05:44:04.562Z,77.23
2023-03-27T05:45:04.822Z,76.99
2023-03-27T05:46:04.620Z,76.37
2023-03-27T05:47:04.527Z,76.57
2023-03-27T05:48:04.646Z,76.92
2023-03-27T05:49:04.521Z,77.30
2023-03-27T05:50:04.559Z,76.95
2023-03-27T05:51:04.542Z,76.40
2023-03-27T05:52:04.511Z,76.57
2023-03-27T05:53:04.516Z,74.19
2023-03-27T05:54:04.495Z,74.36
2023-03-27T05:55:04.499Z,73.88
2023-03-27T05:56:04.511Z,72.39
2023-03-27T05:57:04.553Z,71.25
2023-03-27T05:58:04.450Z,72.05
2023-03-27T05:59:04.458Z,70.67
2023-03-27T06:00:04.470Z,70.87
2023-03-27T06:01:04.446Z,71.08
2023-03-27T06:02:04.515Z,70.98
2023-03-27T06:03:04.554Z,70.74
2023-03-27T06:04:04.573Z,69.37
2023-03-27T06:05:04.426Z,67.74
2023-03-27T06:06:04.497Z,69.74
2023-03-27T06:07:04.444Z,71.12
2023-03-27T06:08:04.397Z,71.94
2023-03-27T06:09:04.387Z,72.43
2023-03-27T06:10:04.397Z,72.02
2023-03-27T06:11:04.373Z,71.57
2023-03-27T06:12:04.365Z,70.77
2023-03-27T06:13:04.424Z,72.02
2023-03-27T06:14:04.370Z,72.53
2023-03-27T06:15:04.358Z,72.43
2023-03-27T06:16:04.373Z,72.98
2023-03-27T06:17:04.348Z,73.01
2023-03-27T06:18:04.437Z,72.11
2023-03-27T06:19:04.340Z,73.67
2023-03-27T06:20:04.300Z,72.81
2023-03-27T06:21:04.316Z,72.53
2023-03-27T06:22:04.334Z,73.84
2023-03-27T06:23:04.341Z,75.92
2023-03-27T06:24:04.428Z,75.19
2023-03-27T06:25:04.305Z,74.36
2023-03-27T06:26:04.282Z,75.36
2023-03-27T06:27:04.292Z,74.71
2023-03-27T06:28:04.318Z,73.39
2023-03-27T06:29:07.822Z,73.28
2023-03-27T06:30:04.276Z,75.40
2023-03-27T06:31:05.320Z,75.92
2023-03-27T06:32:04.305Z,76.47
2023-03-27T06:33:04.372Z,76.68
2023-03-27T06:34:04.263Z,76.26
2023-03-27T06:35:04.276Z,75.88
2023-03-27T06:36:04.249Z,76.71
2023-03-27T06:37:04.222Z,76.61
2023-03-27T06:38:04.227Z,76.50
2023-03-27T06:39:04.286Z,76.23
2023-03-27T06:40:04.239Z,76.71
2023-03-27T06:41:04.246Z,76.85
2023-03-27T06:42:04.191Z,77.68
2023-03-27T06:43:04.280Z,77.47
2023-03-27T06:44:04.203Z,76.81
2023-03-27T06:45:04.185Z,77.09
2023-03-27T06:46:04.260Z,76.95
2023-03-27T06:47:04.225Z,76.33
2023-03-27T06:48:16.875Z,76.12
2023-03-27T06:49:05.169Z,75.05
2023-03-27T06:50:04.155Z,74.19
2023-03-27T06:51:04.182Z,73.98
2023-03-27T06:52:04.397Z,74.29
2023-03-27T06:53:05.909Z,73.77
2023-03-27T06:54:05.149Z,73.25
2023-03-27T06:55:04.148Z,73.94
2023-03-27T06:56:04.150Z,74.26
2023-03-27T06:57:04.176Z,72.71
2023-03-27T06:58:04.162Z,73.63
2023-03-27T06:59:04.113Z,75.29
2023-03-27T07:00:04.149Z,73.63
2023-03-27T07:01:04.142Z,73.01
2023-03-27T07:02:04.150Z,72.81
2023-03-27T07:03:04.170Z,73.53
2023-03-27T07:04:04.114Z,75.36
2023-03-27T07:05:05.099Z,72.60
2023-03-27T07:06:05.189Z,72.39
2023-03-27T07:07:04.120Z,72.29
2023-03-27T07:08:18.616Z,71.73
2023-03-27T07:09:06.075Z,72.94
2023-03-27T07:10:04.052Z,72.53
2023-03-27T07:12:05.057Z,71.50
2023-03-27T07:13:04.027Z,72.08
2023-03-27T07:14:04.098Z,71.67
2023-03-27T07:15:04.011Z,72.39
2023-03-27T07:16:04.149Z,71.43
2023-03-27T07:17:04.067Z,70.40
2023-03-27T07:18:04.027Z,70.50
2023-03-27T07:19:04.007Z,71.67
2023-03-27T07:20:03.992Z,71.61
2023-03-27T07:21:03.998Z,69.37
2023-03-27T07:22:04.002Z,68.68
2023-03-27T07:23:04.219Z,66.86
2023-03-27T07:24:04.014Z,69.40
2023-03-27T07:25:03.944Z,70.67
2023-03-27T07:26:04.016Z,71.81
2023-03-27T07:27:03.934Z,71.37
2023-03-27T07:28:06.297Z,72.09
2023-03-27T07:29:04.933Z,70.30
2023-03-27T07:30:03.961Z,69.85
2023-03-27T07:31:05.059Z,69.78
2023-03-27T07:32:07.146Z,71.50
2023-03-27T07:33:04.987Z,72.05
2023-03-27T07:34:03.983Z,71.09
2023-03-27T07:35:03.926Z,70.98
2023-03-27T07:36:03.930Z,71.98
2023-03-27T07:37:04.029Z,70.30
2023-03-27T07:38:03.899Z,68.88
2023-03-27T07:39:03.890Z,70.95
2023-03-27T07:40:03.952Z,71.26
2023-03-27T07:41:03.922Z,70.72
2023-03-27T07:42:03.873Z,69.89
2023-03-27T07:43:03.909Z,70.57
2023-03-27T07:44:03.904Z,67.61
2023-03-27T07:45:04.548Z,67.96
2023-03-27T07:46:04.886Z,68.40
2023-03-27T07:47:03.891Z,68.68
2023-03-27T07:48:03.884Z,67.91
2023-03-27T07:49:03.830Z,69.20
2023-03-27T07:50:03.895Z,69.02
2023-03-27T07:51:13.422Z,68.68
2023-03-27T07:52:05.988Z,68.06
2023-03-27T07:53:04.826Z,66.54
2023-03-27T07:54:03.843Z,67.37
2023-03-27T07:55:03.840Z,67.99
2023-03-27T07:56:03.884Z,67.19
2023-03-27T07:57:03.875Z,66.78
2023-03-27T07:58:03.961Z,66.91
2023-03-27T07:59:03.780Z,68.05
2023-03-27T08:00:03.814Z,69.43
2023-03-27T08:01:03.813Z,69.53
2023-03-27T08:02:03.819Z,69.43
2023-03-27T08:03:04.006Z,69.43
2023-03-27T08:04:03.895Z,68.46
2023-03-27T08:05:03.876Z,67.61
2023-03-27T08:06:03.743Z,65.85
2023-03-27T08:07:03.773Z,65.44
2023-03-27T08:08:03.750Z,65.23
2023-03-27T08:09:03.764Z,66.78
2023-03-27T08:10:03.736Z,67.54
2023-03-27T08:11:03.715Z,68.98
2023-03-27T08:12:03.746Z,69.06
2023-03-27T08:13:03.737Z,68.12
2023-03-27T08:14:03.754Z,68.51
2023-03-27T08:15:03.697Z,69.33
2023-03-27T08:16:03.679Z,69.51
2023-03-27T08:17:15.010Z,69.09
2023-03-27T08:18:05.721Z,67.34
2023-03-27T08:19:03.701Z,66.57
2023-03-27T08:20:03.694Z,67.40
2023-03-27T08:21:03.679Z,67.95
2023-03-27T08:22:03.657Z,68.74
2023-03-27T08:23:03.681Z,69.47
2023-03-27T08:24:03.696Z,67.85
2023-03-27T08:25:03.627Z,68.46
2023-03-27T08:26:03.636Z,69.53
2023-03-27T08:27:03.629Z,69.12
2023-03-27T08:28:03.659Z,69.35
2023-03-27T08:29:03.660Z,68.08
2023-03-27T08:30:03.602Z,68.08
2023-03-27T08:31:03.699Z,69.43
2023-03-27T08:32:03.595Z,69.46
2023-03-27T08:33:03.769Z,69.04
2023-03-27T08:34:03.644Z,69.32
2023-03-27T08:35:03.632Z,69.98
2023-03-27T08:36:03.658Z,69.53
2023-03-27T08:37:03.582Z,69.53
2023-03-27T08:38:05.833Z,68.70
2023-03-27T08:39:04.546Z,69.77
2023-03-27T08:40:03.545Z,69.25
2023-03-27T08:41:03.542Z,68.40
2023-03-27T08:42:03.555Z,69.74
2023-03-27T08:43:03.552Z,69.64
2023-03-27T08:44:03.530Z,69.26
2023-03-27T08:45:03.575Z,69.43
2023-03-27T08:46:03.619Z,68.06
2023-03-27T08:47:03.500Z,66.93
2023-03-27T08:48:03.538Z,67.58
2023-03-27T08:49:03.496Z,67.09
2023-03-27T08:50:03.481Z,66.26
2023-03-27T08:51:03.513Z,65.41
2023-03-27T08:52:03.500Z,65.69
2023-03-27T08:53:03.485Z,66.61
2023-03-27T08:54:03.460Z,66.30
2023-03-27T08:55:03.492Z,66.45
2023-03-27T08:56:03.458Z,64.90
2023-03-27T08:57:03.489Z,65.28
2023-03-27T08:58:03.440Z,66.28
2023-03-27T08:59:03.449Z,65.05
2023-03-27T09:00:03.475Z,64.46
2023-03-27T09:01:03.434Z,64.21
2023-03-27T09:02:03.463Z,64.76
2023-03-27T09:03:03.463Z,66.54
2023-03-27T09:04:03.492Z,69.37
2023-03-27T09:05:03.456Z,70.01
2023-03-27T09:06:03.412Z,70.09
2023-03-27T09:07:03.440Z,72.05
2023-03-27T09:08:03.383Z,73.39
2023-03-27T09:09:03.404Z,72.98
2023-03-27T09:10:03.407Z,74.81
2023-03-27T09:11:03.386Z,73.29
2023-03-27T09:12:03.421Z,73.15
2023-03-27T09:13:03.393Z,72.85
2023-03-27T09:14:03.401Z,72.05
2023-03-27T09:15:03.496Z,72.77
2023-03-27T09:16:04.408Z,73.81
2023-03-27T09:17:03.353Z,75.15
2023-03-27T09:18:03.486Z,75.50
2023-03-27T09:19:03.389Z,75.50
2023-03-27T09:20:03.454Z,76.43
2023-03-27T09:21:03.332Z,76.78
2023-03-27T09:22:04.068Z,77.67
2023-03-27T09:23:03.992Z,78.57
2023-03-27T09:24:03.431Z,79.36
2023-03-27T09:25:03.975Z,79.36
2023-03-27T09:26:03.290Z,79.94
2023-03-27T09:27:07.463Z,80.26
2023-03-27T09:28:04.324Z,79.22
2023-03-27T09:29:03.314Z,78.12
2023-03-27T09:30:04.871Z,78.33
2023-03-27T09:31:03.295Z,78.22
2023-03-27T09:32:03.313Z,78.26
2023-03-27T09:33:03.288Z,78.71
2023-03-27T09:34:03.316Z,78.19
2023-03-27T09:35:03.265Z,78.54
2023-03-27T09:36:03.293Z,78.44
2023-03-27T09:37:03.234Z,78.57
2023-03-27T09:38:03.226Z,78.26
2023-03-27T09:39:03.312Z,78.22
2023-03-27T09:40:03.265Z,76.32
2023-03-27T09:41:03.229Z,74.33
2023-03-27T09:42:07.426Z,74.63
2023-03-27T09:43:03.195Z,73.47
2023-03-27T09:44:03.245Z,72.40
2023-03-27T09:45:03.205Z,73.36
2023-03-27T09:46:03.196Z,74.53
2023-03-27T09:47:03.225Z,72.71
2023-03-27T09:48:03.208Z,72.81
2023-03-27T09:49:03.159Z,71.13
2023-03-27T09:50:03.183Z,72.37
2023-03-27T09:51:03.200Z,67.70
2023-03-27T09:52:03.153Z,66.94
2023-03-27T09:53:03.135Z,69.28
2023-03-27T09:54:03.144Z,65.47
2023-03-27T09:55:03.170Z,65.09
2023-03-27T09:56:03.393Z,64.93
2023-03-27T09:57:04.189Z,63.39
2023-03-27T09:58:03.154Z,62.97
2023-03-27T09:59:03.122Z,61.33
2023-03-27T10:00:03.140Z,60.58
2023-03-27T10:01:03.151Z,61.09
2023-03-27T10:02:03.098Z,59.47
2023-03-27T10:03:03.158Z,61.59
2023-03-27T10:04:03.127Z,62.38
2023-03-27T10:05:03.107Z,60.91
2023-03-27T10:06:03.110Z,58.86
2023-03-27T10:07:03.092Z,60.22
2023-03-27T10:08:03.071Z,59.68
2023-03-27T10:09:03.071Z,60.30
2023-03-27T10:10:03.097Z,59.19
2023-03-27T10:11:03.087Z,59.84
2023-03-27T10:12:03.172Z,60.09
2023-03-27T10:13:03.062Z,57.65
2023-03-27T10:14:03.041Z,59.01
2023-03-27T10:15:03.039Z,60.15
2023-03-27T10:16:03.085Z,57.52
2023-03-27T10:17:03.142Z,57.76
2023-03-27T10:18:03.039Z,56.36
2023-03-27T10:19:03.007Z,55.54
2023-03-27T10:20:03.015Z,57.18
2023-03-27T10:21:03.026Z,57.03
2023-03-27T10:22:03.041Z,57.86
2023-03-27T10:23:03.034Z,58.89
2023-03-27T10:24:03.009Z,61.28
2023-03-27T10:25:03.043Z,59.86
2023-03-27T10:26:03.004Z,57.62
2023-03-27T10:27:03.014Z,57.37
2023-03-27T10:28:02.993Z,57.47
2023-03-27T10:29:02.982Z,57.19
2023-03-27T10:30:02.982Z,57.11
2023-03-27T10:31:02.949Z,58.45
2023-03-27T10:32:02.994Z,57.06
2023-03-27T10:33:02.971Z,57.45
2023-03-27T10:34:02.981Z,57.37
2023-03-27T10:35:02.951Z,57.06
2023-03-27T10:36:02.989Z,58.50
2023-03-27T10:37:02.977Z,58.30
2023-03-27T10:38:02.936Z,59.41
2023-03-27T10:39:02.938Z,59.09
2023-03-27T10:40:02.948Z,57.24
2023-03-27T10:41:02.896Z,60.10
2023-03-27T10:42:03.070Z,59.45
2023-03-27T10:43:02.946Z,62.07
2023-03-27T10:44:02.908Z,58.93
2023-03-27T10:45:02.939Z,60.17
2023-03-27T10:46:02.893Z,58.26
2023-03-27T10:47:02.935Z,57.42
2023-03-27T10:48:02.900Z,55.98
2023-03-27T10:49:02.899Z,55.72
2023-03-27T10:50:02.880Z,55.93
2023-03-27T10:51:02.907Z,57.68
2023-03-27T10:52:02.880Z,59.01
2023-03-27T10:53:02.962Z,57.54
2023-03-27T10:54:03.002Z,58.09
2023-03-27T10:55:02.850Z,57.96
2023-03-27T10:56:02.871Z,57.50
2023-03-27T10:57:02.937Z,58.29
2023-03-27T10:58:02.840Z,57.26
2023-03-27T10:59:02.865Z,58.40
2023-03-27T11:00:02.844Z,57.37
2023-03-27T11:01:02.865Z,57.68
2023-03-27T11:02:02.849Z,58.06
2023-03-27T11:03:02.843Z,58.89
2023-03-27T11:04:02.850Z,61.01
2023-03-27T11:05:02.858Z,61.76
2023-03-27T11:06:02.929Z,61.55
2023-03-27T11:07:02.831Z,63.00
2023-03-27T11:08:02.791Z,64.45
2023-03-27T11:09:02.777Z,63.93
2023-03-27T11:10:02.818Z,64.42
2023-03-27T11:11:02.795Z,64.31
2023-03-27T11:12:02.787Z,64.67
2023-03-27T11:13:02.767Z,64.74
2023-03-27T11:14:02.848Z,63.57
2023-03-27T11:15:02.829Z,65.30
2023-03-27T11:16:02.976Z,64.40
2023-03-27T11:17:02.790Z,61.44
2023-03-27T11:18:02.787Z,61.03
2023-03-27T11:19:03.745Z,62.32
2023-03-27T11:20:02.768Z,63.04
2023-03-27T11:21:02.755Z,63.79
2023-03-27T11:22:02.722Z,65.79
2023-03-27T11:23:02.719Z,69.82
2023-03-27T11:24:02.794Z,73.19
2023-03-27T11:25:02.804Z,76.05
2023-03-27T11:26:02.736Z,77.91
2023-03-27T11:27:02.719Z,78.36
2023-03-27T11:28:02.717Z,78.28
2023-03-27T11:29:02.735Z,77.87
2023-03-27T11:30:02.682Z,78.39
2023-03-27T11:31:12.001Z,78.25
2023-03-27T11:32:03.752Z,77.84
2023-03-27T11:33:02.742Z,74.95
2023-03-27T11:34:02.685Z,75.78
2023-03-27T11:35:04.234Z,76.18
2023-03-27T11:36:03.686Z,76.18
2023-03-27T11:37:02.634Z,76.70
2023-03-27T11:38:02.686Z,76.77
2023-03-27T11:39:02.641Z,77.25
2023-03-27T11:40:02.653Z,75.91
2023-03-27T11:41:02.626Z,78.28
2023-03-27T11:42:02.635Z,75.05
2023-03-27T11:43:02.671Z,72.23
2023-03-27T11:44:02.647Z,71.78
2023-03-27T11:45:02.616Z,71.41
2023-03-27T11:46:02.744Z,68.60
2023-03-27T11:47:02.607Z,66.44
2023-03-27T11:48:02.719Z,65.00
2023-03-27T11:49:02.599Z,66.51
2023-03-27T11:50:02.606Z,66.03
2023-03-27T11:51:02.596Z,65.34
2023-03-27T11:52:02.567Z,67.74
2023-03-27T11:53:02.600Z,68.43
2023-03-27T11:54:02.594Z,67.57
2023-03-27T11:55:02.605Z,65.41
2023-03-27T11:56:02.584Z,63.49
2023-03-27T11:57:02.665Z,61.87
2023-03-27T11:58:02.569Z,63.65
2023-03-27T11:59:02.557Z,63.90
2023-03-27T12:00:02.522Z,65.34
2023-03-27T12:01:02.546Z,64.27
2023-03-27T12:02:02.653Z,64.27
2023-03-27T12:03:02.580Z,63.90
2023-03-27T12:04:02.581Z,62.79
2023-03-27T12:05:02.500Z,64.89
2023-03-27T12:06:02.534Z,62.87
2023-03-27T12:07:04.967Z,61.51
2023-03-27T12:08:03.475Z,64.28
2023-03-27T12:09:02.479Z,64.07
2023-03-27T12:10:02.555Z,62.37
2023-03-27T12:11:02.462Z,61.86
2023-03-27T12:12:02.450Z,60.70
2023-03-27T12:13:02.466Z,59.62
2023-03-27T12:14:05.492Z,60.26
2023-03-27T12:15:04.463Z,57.49
2023-03-27T12:16:02.435Z,58.67
2023-03-27T12:17:02.418Z,59.77
2023-03-27T12:18:02.484Z,60.70
2023-03-27T12:19:08.122Z,59.59
2023-03-27T12:20:04.396Z,59.55
2023-03-27T12:21:03.773Z,61.59
2023-03-27T12:22:07.151Z,62.37
2023-03-27T12:23:03.397Z,64.49
2023-03-27T12:24:02.385Z,65.83
2023-03-27T12:25:03.398Z,67.58
2023-03-27T12:26:02.432Z,69.62
2023-03-27T12:27:02.361Z,69.45
2023-03-27T12:28:02.358Z,67.25
2023-03-27T12:29:02.388Z,66.40
2023-03-27T12:30:02.366Z,66.99
2023-03-27T12:31:02.347Z,66.03
2023-03-27T12:32:02.360Z,65.66
2023-03-27T12:33:02.413Z,62.21
2023-03-27T12:34:02.428Z,62.34
2023-03-27T12:35:02.319Z,61.42
2023-03-27T12:36:02.392Z,61.83
2023-03-27T12:37:02.320Z,61.29
2023-03-27T12:38:02.337Z,60.44
2023-03-27T12:39:02.294Z,60.13
2023-03-27T12:40:02.334Z,56.02
2023-03-27T12:41:02.246Z,57.36
2023-03-27T12:42:02.265Z,58.11
2023-03-27T12:43:02.281Z,58.03
2023-03-27T12:44:02.268Z,58.26
2023-03-27T12:45:02.290Z,60.31
2023-03-27T12:46:02.399Z,57.03
2023-03-27T12:47:03.383Z,58.83
2023-03-27T12:48:02.283Z,59.23
2023-03-27T12:49:02.246Z,57.26
2023-03-27T12:50:02.220Z,57.93
2023-03-27T12:51:02.230Z,56.15
2023-03-27T12:52:02.204Z,57.21
2023-03-27T12:53:02.196Z,58.23